Radar AviationWeather DUATS TFRs Wunderground Accuweather Weather.com

alt : Radar

TAFs

KCLE 252342Z 2600/2706 26010KT P6SM SCT040
   FM260600 26005KT P6SM SCT100
   FM261000 30005KT P6SM SCT250
   FM261500 30007KT P6SM SCT250
   FM262100 35007KT P6SM SCT250
KTOL 252342Z 2600/2624 26008KT P6SM SCT040
   FM260300 28005KT P6SM BKN100
   FM261000 30003KT P6SM SCT250
   FM261500 26005KT P6SM SKC
KFDY 252342Z 2600/2624 26010KT P6SM SCT040
   FM260300 26005KT P6SM SCT100
   FM261000 30003KT P6SM SCT250
   FM261500 VRB05KT P6SM SCT250
KJXN 252340Z 2600/2624 29004KT P6SM BKN120
   FM261000 33003KT 4SM BR SCT120
   FM261300 30006KT P6SM FEW250
KFWA 252326Z 2600/2624 29005KT P6SM VCSH SCT050 BKN150
   FM260400 VRB03KT P6SM SCT040 BKN200
     TEMPO 2610/2612 4SM BR
KDTW 252323Z 2600/2706 28007KT P6SM SCT150
   FM261400 32005KT P6SM SCT250
   FM262000 26005KT P6SM SCT060
   FM270100 VRB03KT P6SM BKN250

METARs

KDUH 260114Z AUTO 00000KT 10SM CLR 25/21 A3003 RMK AO2 T02540207
KJXN 260056Z AUTO 29009KT 10SM CLR 23/20 A3003 RMK AO2 SLP162 T02330200
KFWA 260054Z 22003KT 10SM FEW030 FEW065 24/21 A3004 RMK AO2 SLP165 CB DSNT NW-N T02390211
KDTW 260053Z 28006KT 10SM FEW045 FEW250 26/21 A3000 RMK AO2 SLP154 T02560211
KFDY 260053Z AUTO 25007KT 10SM SCT055 26/20 A3002 RMK AO2 SLP157 T02560200
KTDZ 260053Z AUTO 28007KT 10SM CLR 26/21 A3001 RMK AO2 SLP159 T02610211
KTOL 260052Z 27007KT 10SM CLR 26/21 A3001 RMK AO2 SLP157 T02560211
KCLE 260051Z 28008KT 10SM FEW040 FEW070 SCT250 28/19 A3002 RMK AO2 SLP158 T02830194

alt : Satellite

alt : TFRs